sensor_id;sensor_type;location;lat;lon;timestamp;pressure;altitude;pressure_sealevel;temperature;humidity
55187;BME280;55457;52.002;5.464;2023-09-19T00:01:06;100528.00;;;22.98;64.23
55187;BME280;55457;52.002;5.464;2023-09-19T00:03:34;100529.06;;;22.97;64.28
55187;BME280;55457;52.002;5.464;2023-09-19T00:06:02;100532.63;;;22.97;64.10
55187;BME280;55457;52.002;5.464;2023-09-19T00:08:28;100522.81;;;22.96;64.12
55187;BME280;55457;52.002;5.464;2023-09-19T00:10:54;100532.63;;;22.97;63.93
55187;BME280;55457;52.002;5.464;2023-09-19T00:13:20;100528.25;;;22.96;64.24
55187;BME280;55457;52.002;5.464;2023-09-19T00:15:47;100535.34;;;22.97;64.18
55187;BME280;55457;52.002;5.464;2023-09-19T00:18:14;100530.97;;;22.96;63.97
55187;BME280;55457;52.002;5.464;2023-09-19T00:20:41;100530.97;;;22.96;63.90
55187;BME280;55457;52.002;5.464;2023-09-19T00:23:07;100536.41;;;22.96;64.27
55187;BME280;55457;52.002;5.464;2023-09-19T00:25:36;100535.59;;;22.96;64.12
55187;BME280;55457;52.002;5.464;2023-09-19T00:28:03;100547.28;;;22.96;64.31
55187;BME280;55457;52.002;5.464;2023-09-19T00:30:29;100544.03;;;22.94;64.44
55187;BME280;55457;52.002;5.464;2023-09-19T00:32:54;100541.84;;;22.96;63.86
55187;BME280;55457;52.002;5.464;2023-09-19T00:35:20;100549.44;;;22.94;64.06
55187;BME280;55457;52.002;5.464;2023-09-19T00:37:49;100550.25;;;22.95;64.16
55187;BME280;55457;52.002;5.464;2023-09-19T00:40:14;100544.03;;;22.94;64.05
55187;BME280;55457;52.002;5.464;2023-09-19T00:42:47;100549.44;;;22.94;63.93
55187;BME280;55457;52.002;5.464;2023-09-19T00:45:15;100545.66;;;22.95;64.04
55187;BME280;55457;52.002;5.464;2023-09-19T00:47:45;100547.81;;;22.93;64.13
55187;BME280;55457;52.002;5.464;2023-09-19T00:50:11;100546.75;;;22.94;64.10
55187;BME280;55457;52.002;5.464;2023-09-19T00:52:40;100554.06;;;22.94;64.16
55187;BME280;55457;52.002;5.464;2023-09-19T00:55:11;100557.59;;;22.94;64.02
55187;BME280;55457;52.002;5.464;2023-09-19T00:57:39;100553.25;;;22.93;64.17
55187;BME280;55457;52.002;5.464;2023-09-19T01:00:06;100557.06;;;22.92;64.19
55187;BME280;55457;52.002;5.464;2023-09-19T01:02:34;100562.50;;;22.92;64.03
55187;BME280;55457;52.002;5.464;2023-09-19T01:05:00;100555.41;;;22.91;63.85
55187;BME280;55457;52.002;5.464;2023-09-19T01:07:30;100561.66;;;22.91;64.02
55187;BME280;55457;52.002;5.464;2023-09-19T01:09:56;100563.31;;;22.92;63.80
55187;BME280;55457;52.002;5.464;2023-09-19T01:15:32;100560.84;;;22.91;63.84
55187;BME280;55457;52.002;5.464;2023-09-19T01:20:57;100563.56;;;22.91;63.81
55187;BME280;55457;52.002;5.464;2023-09-19T01:31:59;100576.34;;;22.90;63.62
55187;BME280;55457;52.002;5.464;2023-09-19T01:34:46;100565.47;;;22.90;63.76
55187;BME280;55457;52.002;5.464;2023-09-19T01:37:12;100575.53;;;22.90;63.77
55187;BME280;55457;52.002;5.464;2023-09-19T01:39:40;100577.44;;;22.89;63.97
55187;BME280;55457;52.002;5.464;2023-09-19T01:45:11;100576.34;;;22.90;63.81
55187;BME280;55457;52.002;5.464;2023-09-19T01:47:42;100580.94;;;22.90;64.08
55187;BME280;55457;52.002;5.464;2023-09-19T01:50:32;100580.94;;;22.90;64.12
55187;BME280;55457;52.002;5.464;2023-09-19T01:53:04;100577.44;;;22.89;64.11
55187;BME280;55457;52.002;5.464;2023-09-19T01:55:34;100584.75;;;22.89;64.03
55187;BME280;55457;52.002;5.464;2023-09-19T01:58:07;100586.66;;;22.88;63.97
55187;BME280;55457;52.002;5.464;2023-09-19T02:00:37;100587.47;;;22.89;63.77
55187;BME280;55457;52.002;5.464;2023-09-19T02:03:03;100587.72;;;22.87;63.80
55187;BME280;55457;52.002;5.464;2023-09-19T02:05:28;100590.44;;;22.87;63.72
55187;BME280;55457;52.002;5.464;2023-09-19T02:07:54;100596.94;;;22.86;63.81
55187;BME280;55457;52.002;5.464;2023-09-19T02:10:20;100594.22;;;22.86;63.87
55187;BME280;55457;52.002;5.464;2023-09-19T02:12:46;100592.59;;;22.85;63.87
55187;BME280;55457;52.002;5.464;2023-09-19T02:15:11;100587.97;;;22.86;63.50
55187;BME280;55457;52.002;5.464;2023-09-19T02:17:37;100590.16;;;22.84;63.26
55187;BME280;55457;52.002;5.464;2023-09-19T02:20:03;100584.16;;;22.82;63.22
55187;BME280;55457;52.002;5.464;2023-09-19T02:22:36;100578.75;;;22.82;63.08
55187;BME280;55457;52.002;5.464;2023-09-19T02:25:02;100582.25;;;22.82;63.05
55187;BME280;55457;52.002;5.464;2023-09-19T02:27:30;100591.22;;;22.83;63.20
55187;BME280;55457;52.002;5.464;2023-09-19T02:29:56;100590.66;;;22.81;63.26
55187;BME280;55457;52.002;5.464;2023-09-19T02:32:21;100601.28;;;22.82;63.27
55187;BME280;55457;52.002;5.464;2023-09-19T02:34:46;100595.03;;;22.82;62.97
55187;BME280;55457;52.002;5.464;2023-09-19T02:37:12;100597.75;;;22.82;62.92
55187;BME280;55457;52.002;5.464;2023-09-19T02:39:38;100604.25;;;22.81;63.03
55187;BME280;55457;52.002;5.464;2023-09-19T02:42:04;100604.25;;;22.81;62.79
55187;BME280;55457;52.002;5.464;2023-09-19T02:44:30;100610.78;;;22.80;62.30
55187;BME280;55457;52.002;5.464;2023-09-19T02:46:55;100611.03;;;22.78;62.59
55187;BME280;55457;52.002;5.464;2023-09-19T02:49:22;100609.41;;;22.77;62.74
55187;BME280;55457;52.002;5.464;2023-09-19T02:51:47;100603.97;;;22.77;62.70
55187;BME280;55457;52.002;5.464;2023-09-19T02:54:13;100608.84;;;22.75;62.13
55187;BME280;55457;52.002;5.464;2023-09-19T02:56:38;100603.69;;;22.74;62.50
55187;BME280;55457;52.002;5.464;2023-09-19T02:59:04;100614.28;;;22.75;62.52
55187;BME280;55457;52.002;5.464;2023-09-19T03:01:29;100610.75;;;22.75;62.17
55187;BME280;55457;52.002;5.464;2023-09-19T03:03:55;100598.25;;;22.74;62.09
55187;BME280;55457;52.002;5.464;2023-09-19T03:06:21;100602.59;;;22.75;62.23
55187;BME280;55457;52.002;5.464;2023-09-19T03:08:46;100605.31;;;22.75;61.83
55187;BME280;55457;52.002;5.464;2023-09-19T03:11:14;100609.13;;;22.74;61.75
55187;BME280;55457;52.002;5.464;2023-09-19T03:13:41;100599.06;;;22.74;61.89
55187;BME280;55457;52.002;5.464;2023-09-19T03:16:08;100598.25;;;22.74;61.74
55187;BME280;55457;52.002;5.464;2023-09-19T03:18:36;100606.41;;;22.74;61.81
55187;BME280;55457;52.002;5.464;2023-09-19T03:21:02;100592.81;;;22.74;61.65
55187;BME280;55457;52.002;5.464;2023-09-19T03:23:28;100592.81;;;22.74;61.48
55187;BME280;55457;52.002;5.464;2023-09-19T03:25:56;100595.25;;;22.75;61.45
55187;BME280;55457;52.002;5.464;2023-09-19T03:28:23;100596.34;;;22.74;61.49
55187;BME280;55457;52.002;5.464;2023-09-19T03:31:03;100599.06;;;22.74;61.28
55187;BME280;55457;52.002;5.464;2023-09-19T03:33:28;100610.22;;;22.73;61.25
55187;BME280;55457;52.002;5.464;2023-09-19T03:35:56;100609.94;;;22.74;61.40
55187;BME280;55457;52.002;5.464;2023-09-19T03:38:23;100603.69;;;22.74;60.99
55187;BME280;55457;52.002;5.464;2023-09-19T03:40:48;100603.69;;;22.74;60.86
55187;BME280;55457;52.002;5.464;2023-09-19T03:43:14;100585.75;;;22.73;60.83
55187;BME280;55457;52.002;5.464;2023-09-19T03:45:39;100582.47;;;22.71;60.75
55187;BME280;55457;52.002;5.464;2023-09-19T03:48:11;100595.00;;;22.72;60.98
55187;BME280;55457;52.002;5.464;2023-09-19T03:50:37;100591.72;;;22.70;60.42
55187;BME280;55457;52.002;5.464;2023-09-19T03:53:02;100592.53;;;22.70;60.64
55187;BME280;55457;52.002;5.464;2023-09-19T03:55:28;100596.31;;;22.69;59.92
55187;BME280;55457;52.002;5.464;2023-09-19T03:57:55;100590.09;;;22.69;60.39
55187;BME280;55457;52.002;5.464;2023-09-19T04:00:20;100590.09;;;22.69;59.37
55187;BME280;55457;52.002;5.464;2023-09-19T04:02:48;100603.38;;;22.65;59.62
55187;BME280;55457;52.002;5.464;2023-09-19T04:05:14;100606.88;;;22.65;59.88
55187;BME280;55457;52.002;5.464;2023-09-19T04:07:39;100610.69;;;22.64;59.86
55187;BME280;55457;52.002;5.464;2023-09-19T04:10:05;100616.13;;;22.64;59.51
55187;BME280;55457;52.002;5.464;2023-09-19T04:12:31;100617.19;;;22.58;59.23
55187;BME280;55457;52.002;5.464;2023-09-19T04:14:57;100616.34;;;22.53;58.28
55187;BME280;55457;52.002;5.464;2023-09-19T04:17:22;100618.53;;;22.51;59.13
55187;BME280;55457;52.002;5.464;2023-09-19T04:19:48;100630.16;;;22.46;58.78
55187;BME280;55457;52.002;5.464;2023-09-19T04:22:13;100634.25;;;22.49;59.29
55187;BME280;55457;52.002;5.464;2023-09-19T04:24:39;100642.13;;;22.45;58.77
55187;BME280;55457;52.002;5.464;2023-09-19T04:27:05;100641.84;;;22.47;59.08
55187;BME280;55457;52.002;5.464;2023-09-19T04:29:30;100633.69;;;22.47;59.13
55187;BME280;55457;52.002;5.464;2023-09-19T04:31:56;100638.84;;;22.48;59.16
55187;BME280;55457;52.002;5.464;2023-09-19T04:34:22;100653.81;;;22.51;59.46
55187;BME280;55457;52.002;5.464;2023-09-19T04:36:48;100650.84;;;22.52;59.17
55187;BME280;55457;52.002;5.464;2023-09-19T04:39:14;100654.06;;;22.49;58.08
55187;BME280;55457;52.002;5.464;2023-09-19T04:41:39;100648.59;;;22.44;58.57
55187;BME280;55457;52.002;5.464;2023-09-19T04:44:06;100667.88;;;22.43;57.88
55187;BME280;55457;52.002;5.464;2023-09-19T04:46:33;100660.50;;;22.38;57.90
55187;BME280;55457;52.002;5.464;2023-09-19T04:48:58;100645.03;;;22.38;58.41
55187;BME280;55457;52.002;5.464;2023-09-19T04:51:24;100644.78;;;22.40;58.57
55187;BME280;55457;52.002;5.464;2023-09-19T04:53:50;100649.41;;;22.39;58.24
55187;BME280;55457;52.002;5.464;2023-09-19T04:56:16;100656.19;;;22.42;58.37
55187;BME280;55457;52.002;5.464;2023-09-19T04:58:41;100655.94;;;22.44;58.25
55187;BME280;55457;52.002;5.464;2023-09-19T05:01:06;100660.81;;;22.42;56.03
55187;BME280;55457;52.002;5.464;2023-09-19T05:03:36;100664.88;;;22.44;57.94
55187;BME280;55457;52.002;5.464;2023-09-19T05:06:02;100654.03;;;22.44;58.12
55187;BME280;55457;52.002;5.464;2023-09-19T05:08:27;100656.19;;;22.42;57.28
55187;BME280;55457;52.002;5.464;2023-09-19T05:10:53;100653.22;;;22.44;57.53
55187;BME280;55457;52.002;5.464;2023-09-19T05:13:18;100661.13;;;22.45;57.66
55187;BME280;55457;52.002;5.464;2023-09-19T05:15:43;100652.97;;;22.45;57.82
55187;BME280;55457;52.002;5.464;2023-09-19T05:18:09;100656.44;;;22.35;56.44
55187;BME280;55457;52.002;5.464;2023-09-19T05:20:35;100665.13;;;22.37;57.27
55187;BME280;55457;52.002;5.464;2023-09-19T05:23:04;100664.63;;;22.40;57.35
55187;BME280;55457;52.002;5.464;2023-09-19T05:25:35;100665.69;;;22.39;55.90
55187;BME280;55457;52.002;5.464;2023-09-19T05:28:09;100660.47;;;22.33;56.22
55187;BME280;55457;52.002;5.464;2023-09-19T05:30:37;100663.41;;;22.26;56.24
55187;BME280;55457;52.002;5.464;2023-09-19T05:33:04;100658.00;;;22.26;57.08
55187;BME280;55457;52.002;5.464;2023-09-19T05:35:30;100664.78;;;22.29;57.54
55187;BME280;55457;52.002;5.464;2023-09-19T05:37:56;100656.13;;;22.32;57.31
55187;BME280;55457;52.002;5.464;2023-09-19T05:40:23;100656.66;;;22.34;57.30
55187;BME280;55457;52.002;5.464;2023-09-19T05:42:49;100653.44;;;22.37;57.18
55187;BME280;55457;52.002;5.464;2023-09-19T05:45:18;100662.13;;;22.39;57.45
55187;BME280;55457;52.002;5.464;2023-09-19T05:47:50;100659.44;;;22.39;56.82
55187;BME280;55457;52.002;5.464;2023-09-19T05:50:16;100665.13;;;22.37;56.62
55187;BME280;55457;52.002;5.464;2023-09-19T05:52:42;100663.00;;;22.39;56.74
55187;BME280;55457;52.002;5.464;2023-09-19T05:55:09;100661.28;;;22.33;56.63
55187;BME280;55457;52.002;5.464;2023-09-19T05:57:36;100663.19;;;22.33;56.68
55187;BME280;55457;52.002;5.464;2023-09-19T06:00:08;100677.06;;;22.36;56.83
55187;BME280;55457;52.002;5.464;2023-09-19T06:02:37;100672.72;;;22.35;56.55
55187;BME280;55457;52.002;5.464;2023-09-19T06:05:04;100674.34;;;22.36;57.17
55187;BME280;55457;52.002;5.464;2023-09-19T06:07:32;100672.47;;;22.37;56.85
55187;BME280;55457;52.002;5.464;2023-09-19T06:10:04;100682.22;;;22.38;57.30
55187;BME280;55457;52.002;5.464;2023-09-19T06:12:38;100685.22;;;22.36;56.50
55187;BME280;55457;52.002;5.464;2023-09-19T06:15:06;100688.19;;;22.35;56.81
55187;BME280;55457;52.002;5.464;2023-09-19T06:17:34;100686.03;;;22.37;56.91
55187;BME280;55457;52.002;5.464;2023-09-19T06:20:06;100693.09;;;22.38;56.89
55187;BME280;55457;52.002;5.464;2023-09-19T06:22:38;100690.94;;;22.40;56.96
55187;BME280;55457;52.002;5.464;2023-09-19T06:25:04;100696.94;;;22.42;56.99
55187;BME280;55457;52.002;5.464;2023-09-19T06:27:29;100697.47;;;22.44;57.08
55187;BME280;55457;52.002;5.464;2023-09-19T06:29:54;100698.06;;;22.46;57.03
55187;BME280;55457;52.002;5.464;2023-09-19T06:32:27;100690.16;;;22.45;56.90
55187;BME280;55457;52.002;5.464;2023-09-19T06:34:52;100692.03;;;22.44;56.94
55187;BME280;55457;52.002;5.464;2023-09-19T06:37:19;100689.09;;;22.46;56.82
55187;BME280;55457;52.002;5.464;2023-09-19T06:39:46;100687.44;;;22.45;56.84
55187;BME280;55457;52.002;5.464;2023-09-19T06:42:15;100689.91;;;22.46;56.76
55187;BME280;55457;52.002;5.464;2023-09-19T06:44:42;100690.72;;;22.47;57.21
55187;BME280;55457;52.002;5.464;2023-09-19T06:47:08;100688.28;;;22.45;55.85
55187;BME280;55457;52.002;5.464;2023-09-19T06:49:34;100685.50;;;22.35;56.35
55187;BME280;55457;52.002;5.464;2023-09-19T06:52:00;100687.13;;;22.36;56.96
55187;BME280;55457;52.002;5.464;2023-09-19T06:54:25;100691.19;;;22.38;56.98
55187;BME280;55457;52.002;5.464;2023-09-19T06:56:53;100689.28;;;22.39;57.28
55187;BME280;55457;52.002;5.464;2023-09-19T06:59:20;100690.13;;;22.39;57.22
55187;BME280;55457;52.002;5.464;2023-09-19T07:01:46;100688.47;;;22.38;56.27
55187;BME280;55457;52.002;5.464;2023-09-19T07:04:12;100684.09;;;22.32;55.90
55187;BME280;55457;52.002;5.464;2023-09-19T07:06:38;100697.91;;;22.26;56.53
55187;BME280;55457;52.002;5.464;2023-09-19T07:09:03;100695.19;;;22.26;56.92
55187;BME280;55457;52.002;5.464;2023-09-19T07:11:29;100687.31;;;22.24;56.78
55187;BME280;55457;52.002;5.464;2023-09-19T07:13:56;100689.19;;;22.24;57.01
55187;BME280;55457;52.002;5.464;2023-09-19T07:16:21;100700.56;;;22.21;56.33
55187;BME280;55457;52.002;5.464;2023-09-19T07:18:54;100688.63;;;22.22;57.04
55187;BME280;55457;52.002;5.464;2023-09-19T07:21:20;100697.31;;;22.19;56.27
55187;BME280;55457;52.002;5.464;2023-09-19T07:23:46;100695.97;;;22.21;57.52
55187;BME280;55457;52.002;5.464;2023-09-19T07:26:11;100705.44;;;22.19;56.76
55187;BME280;55457;52.002;5.464;2023-09-19T07:28:37;100718.75;;;22.20;57.64
55187;BME280;55457;52.002;5.464;2023-09-19T07:31:02;100698.97;;;22.25;59.16
55187;BME280;55457;52.002;5.464;2023-09-19T07:33:34;100707.59;;;22.17;58.30
55187;BME280;55457;52.002;5.464;2023-09-19T07:35:59;100712.47;;;22.14;59.63
55187;BME280;55457;52.002;5.464;2023-09-19T07:38:24;100720.59;;;22.14;57.38
55187;BME280;55457;52.002;5.464;2023-09-19T07:40:51;100725.00;;;21.94;58.58
55187;BME280;55457;52.002;5.464;2023-09-19T07:43:16;100721.00;;;21.74;59.13
55187;BME280;55457;52.002;5.464;2023-09-19T07:45:43;100737.97;;;21.65;58.69
55187;BME280;55457;52.002;5.464;2023-09-19T07:48:08;100717.31;;;21.58;59.13
55187;BME280;55457;52.002;5.464;2023-09-19T07:50:39;100715.66;;;21.57;59.38
55187;BME280;55457;52.002;5.464;2023-09-19T07:53:05;100707.47;;;21.52;59.49
55187;BME280;55457;52.002;5.464;2023-09-19T07:55:31;100723.22;;;21.55;59.40
55187;BME280;55457;52.002;5.464;2023-09-19T07:57:59;100730.59;;;21.60;59.60
55187;BME280;55457;52.002;5.464;2023-09-19T08:00:24;100736.91;;;21.66;59.94
55187;BME280;55457;52.002;5.464;2023-09-19T08:02:50;100724.28;;;21.54;58.60
55187;BME280;55457;52.002;5.464;2023-09-19T08:05:17;100726.41;;;21.47;59.54
55187;BME280;55457;52.002;5.464;2023-09-19T08:07:46;100726.72;;;21.51;59.97
55187;BME280;55457;52.002;5.464;2023-09-19T08:10:15;100716.81;;;21.61;60.03
55187;BME280;55457;52.002;5.464;2023-09-19T08:12:45;100745.34;;;21.69;59.72
55187;BME280;55457;52.002;5.464;2023-09-19T08:15:18;100741.28;;;21.67;58.96
55187;BME280;55457;52.002;5.464;2023-09-19T08:17:45;100728.75;;;21.66;59.12
55187;BME280;55457;52.002;5.464;2023-09-19T08:20:11;100729.28;;;21.62;59.28
55187;BME280;55457;52.002;5.464;2023-09-19T08:22:47;100728.75;;;21.66;59.68
55187;BME280;55457;52.002;5.464;2023-09-19T08:25:14;100702.44;;;21.66;59.88
55187;BME280;55457;52.002;5.464;2023-09-19T08:27:42;100721.75;;;21.70;59.50
55187;BME280;55457;52.002;5.464;2023-09-19T08:30:17;100713.63;;;21.70;59.54
55187;BME280;55457;52.002;5.464;2023-09-19T08:32:43;100708.50;;;21.73;59.20
55187;BME280;55457;52.002;5.464;2023-09-19T08:35:12;100715.25;;;21.71;59.48
55187;BME280;55457;52.002;5.464;2023-09-19T08:37:37;100728.56;;;21.72;59.50
55187;BME280;55457;52.002;5.464;2023-09-19T08:40:03;100709.31;;;21.74;59.56
55187;BME280;55457;52.002;5.464;2023-09-19T08:42:28;100717.53;;;21.79;59.06
55187;BME280;55457;52.002;5.464;2023-09-19T08:44:55;100698.16;;;21.70;58.08
55187;BME280;55457;52.002;5.464;2023-09-19T08:47:34;100701.41;;;21.67;58.46
55187;BME280;55457;52.002;5.464;2023-09-19T08:50:12;100701.69;;;21.71;58.82
55187;BME280;55457;52.002;5.464;2023-09-19T08:52:42;100704.44;;;21.76;59.49
55187;BME280;55457;52.002;5.464;2023-09-19T08:55:11;100710.47;;;21.78;59.29
55187;BME280;55457;52.002;5.464;2023-09-19T08:57:37;100715.69;;;21.84;58.73
55187;BME280;55457;52.002;5.464;2023-09-19T09:00:07;100717.03;;;21.87;58.74
55187;BME280;55457;52.002;5.464;2023-09-19T09:02:38;100711.16;;;21.95;58.57
55187;BME280;55457;52.002;5.464;2023-09-19T09:05:10;100709.00;;;21.97;58.42
55187;BME280;55457;52.002;5.464;2023-09-19T09:07:41;100701.44;;;21.99;58.50
55187;BME280;55457;52.002;5.464;2023-09-19T09:10:06;100711.13;;;21.90;57.69
55187;BME280;55457;52.002;5.464;2023-09-19T09:12:32;100707.28;;;21.86;57.63
55187;BME280;55457;52.002;5.464;2023-09-19T09:15:00;100706.72;;;21.84;58.00
55187;BME280;55457;52.002;5.464;2023-09-19T09:17:26;100704.50;;;21.81;57.94
55187;BME280;55457;52.002;5.464;2023-09-19T09:19:54;100697.75;;;21.83;57.80
55187;BME280;55457;52.002;5.464;2023-09-19T09:22:20;100698.59;;;21.84;57.42
55187;BME280;55457;52.002;5.464;2023-09-19T09:24:56;100710.75;;;21.81;57.74
55187;BME280;55457;52.002;5.464;2023-09-19T09:27:28;100699.91;;;21.81;57.84
55187;BME280;55457;52.002;5.464;2023-09-19T09:29:54;100705.13;;;21.88;58.33
55187;BME280;55457;52.002;5.464;2023-09-19T09:32:27;100713.44;;;22.03;58.42
55187;BME280;55457;52.002;5.464;2023-09-19T09:34:58;100708.13;;;22.13;57.77
55187;BME280;55457;52.002;5.464;2023-09-19T09:37:24;100701.66;;;22.20;56.98
55187;BME280;55457;52.002;5.464;2023-09-19T09:39:59;100685.06;;;22.16;56.88
55187;BME280;55457;52.002;5.464;2023-09-19T09:42:44;100694.78;;;22.12;57.29
55187;BME280;55457;52.002;5.464;2023-09-19T09:47:51;100687.00;;;22.21;56.94
55187;BME280;55457;52.002;5.464;2023-09-19T09:50:32;100684.88;;;22.28;56.44
55187;BME280;55457;52.002;5.464;2023-09-19T09:53:27;100674.00;;;22.28;56.95
55187;BME280;55457;52.002;5.464;2023-09-19T09:58:36;100680.28;;;22.33;56.39
55187;BME280;55457;52.002;5.464;2023-09-19T10:01:03;100681.38;;;22.32;56.53
55187;BME280;55457;52.002;5.464;2023-09-19T10:03:37;100703.94;;;22.38;56.70
55187;BME280;55457;52.002;5.464;2023-09-19T10:06:12;100718.09;;;22.40;56.34
55187;BME280;55457;52.002;5.464;2023-09-19T10:12:07;100699.53;;;22.27;55.88
55187;BME280;55457;52.002;5.464;2023-09-19T10:14:36;100701.66;;;22.20;55.90
55187;BME280;55457;52.002;5.464;2023-09-19T10:17:05;100702.97;;;22.17;56.38
55187;BME280;55457;52.002;5.464;2023-09-19T10:19:42;100692.44;;;22.21;56.31
55187;BME280;55457;52.002;5.464;2023-09-19T10:22:12;100689.97;;;22.19;56.20
55187;BME280;55457;52.002;5.464;2023-09-19T10:24:46;100694.81;;;22.17;55.95
55187;BME280;55457;52.002;5.464;2023-09-19T10:27:12;100687.22;;;22.14;56.50
55187;BME280;55457;52.002;5.464;2023-09-19T10:29:39;100682.59;;;22.14;56.60
55187;BME280;55457;52.002;5.464;2023-09-19T10:32:05;100672.31;;;22.17;56.73
55187;BME280;55457;52.002;5.464;2023-09-19T10:34:35;100674.50;;;22.20;56.89
55187;BME280;55457;52.002;5.464;2023-09-19T10:37:02;100657.22;;;22.31;56.60
55187;BME280;55457;52.002;5.464;2023-09-19T10:39:31;100651.84;;;22.41;56.27
55187;BME280;55457;52.002;5.464;2023-09-19T10:42:01;100664.03;;;22.38;55.53
55187;BME280;55457;52.002;5.464;2023-09-19T10:44:32;100668.59;;;22.28;55.85
55187;BME280;55457;52.002;5.464;2023-09-19T10:46:58;100669.66;;;22.27;56.27
55187;BME280;55457;52.002;5.464;2023-09-19T10:49:24;100640.94;;;22.31;56.97
55187;BME280;55457;52.002;5.464;2023-09-19T10:51:54;100645.84;;;22.39;56.57
55187;BME280;55457;52.002;5.464;2023-09-19T10:54:25;100656.19;;;22.42;56.53
55187;BME280;55457;52.002;5.464;2023-09-19T10:56:52;100671.97;;;22.45;56.58
55187;BME280;55457;52.002;5.464;2023-09-19T10:59:20;100644.81;;;22.45;56.66
55187;BME280;55457;52.002;5.464;2023-09-19T11:09:50;100643.84;;;22.61;55.49
55187;BME280;55457;52.002;5.464;2023-09-19T11:14:56;100627.53;;;22.61;55.29
55187;BME280;55457;52.002;5.464;2023-09-19T11:17:40;100624.78;;;22.56;55.31
55187;BME280;55457;52.002;5.464;2023-09-19T11:30:43;100621.09;;;22.78;55.90
55187;BME280;55457;52.002;5.464;2023-09-19T11:33:19;100627.34;;;22.78;55.54
55187;BME280;55457;52.002;5.464;2023-09-19T11:36:06;100631.97;;;22.78;55.10
55187;BME280;55457;52.002;5.464;2023-09-19T11:46:26;100611.28;;;22.72;54.84
55187;BME280;55457;52.002;5.464;2023-09-19T11:48:53;100615.38;;;22.74;54.69
55187;BME280;55457;52.002;5.464;2023-09-19T11:51:22;100626.22;;;22.69;54.65
55187;BME280;55457;52.002;5.464;2023-09-19T11:53:52;100634.59;;;22.62;54.09
55187;BME280;55457;52.002;5.464;2023-09-19T11:56:19;100609.56;;;22.50;54.44
55187;BME280;55457;52.002;5.464;2023-09-19T11:58:46;100603.00;;;22.46;55.41
55187;BME280;55457;52.002;5.464;2023-09-19T12:01:16;100610.03;;;22.42;54.96
55187;BME280;55457;52.002;5.464;2023-09-19T12:03:46;100604.31;;;22.38;55.11
55187;BME280;55457;52.002;5.464;2023-09-19T12:06:15;100612.19;;;22.35;54.42
55187;BME280;55457;52.002;5.464;2023-09-19T12:08:42;100608.31;;;22.26;54.97
55187;BME280;55457;52.002;5.464;2023-09-19T12:11:12;100626.19;;;22.22;55.51
55187;BME280;55457;52.002;5.464;2023-09-19T12:13:45;100621.31;;;22.24;55.25
55187;BME280;55457;52.002;5.464;2023-09-19T12:16:20;100625.41;;;22.26;55.89
55187;BME280;55457;52.002;5.464;2023-09-19T12:18:47;100620.84;;;22.32;56.13
55187;BME280;55457;52.002;5.464;2023-09-19T12:21:31;100617.03;;;22.33;55.83
55187;BME280;55457;52.002;5.464;2023-09-19T12:24:16;100618.13;;;22.32;54.94
55187;BME280;55457;52.002;5.464;2023-09-19T12:26:45;100603.69;;;22.26;55.32
55187;BME280;55457;52.002;5.464;2023-09-19T12:29:18;100608.31;;;22.26;55.67
55187;BME280;55457;52.002;5.464;2023-09-19T12:31:51;100612.97;;;22.30;56.12
55187;BME280;55457;52.002;5.464;2023-09-19T12:34:28;100606.44;;;22.31;55.55
55187;BME280;55457;52.002;5.464;2023-09-19T12:37:15;100611.34;;;22.29;56.13
55187;BME280;55457;52.002;5.464;2023-09-19T12:39:46;100609.94;;;22.27;56.16
55187;BME280;55457;52.002;5.464;2023-09-19T12:42:15;100613.72;;;22.21;56.01
55187;BME280;55457;52.002;5.464;2023-09-19T12:44:51;100619.69;;;22.23;56.47
55187;BME280;55457;52.002;5.464;2023-09-19T12:47:27;100605.25;;;22.17;56.22
55187;BME280;55457;52.002;5.464;2023-09-19T12:50:08;100614.22;;;22.18;56.57
55187;BME280;55457;52.002;5.464;2023-09-19T12:52:54;100615.88;;;22.19;56.61
55187;BME280;55457;52.002;5.464;2023-09-19T12:55:29;100613.38;;;22.12;56.54
55187;BME280;55457;52.002;5.464;2023-09-19T13:00:43;100630.03;;;21.94;56.83
55187;BME280;55457;52.002;5.464;2023-09-19T13:05:54;100618.56;;;21.86;56.52
55187;BME280;55457;52.002;5.464;2023-09-19T13:08:21;100616.88;;;21.80;57.06
55187;BME280;55457;52.002;5.464;2023-09-19T13:11:06;100626.91;;;21.80;57.22
55187;BME280;55457;52.002;5.464;2023-09-19T13:13:34;100631.78;;;21.78;57.15
55187;BME280;55457;52.002;5.464;2023-09-19T13:16:01;100623.72;;;21.83;58.09
55187;BME280;55457;52.002;5.464;2023-09-19T13:18:27;100627.50;;;21.87;57.12
55187;BME280;55457;52.002;5.464;2023-09-19T13:21:07;100634.59;;;21.88;57.36
55187;BME280;55457;52.002;5.464;2023-09-19T13:23:42;100626.50;;;21.93;57.78
55187;BME280;55457;52.002;5.464;2023-09-19T13:26:09;100619.47;;;21.97;57.65
55187;BME280;55457;52.002;5.464;2023-09-19T13:28:35;100619.50;;;22.02;57.64
55187;BME280;55457;52.002;5.464;2023-09-19T13:31:01;100622.25;;;22.07;57.67
55187;BME280;55457;52.002;5.464;2023-09-19T13:33:26;100616.91;;;22.12;57.88
55187;BME280;55457;52.002;5.464;2023-09-19T13:35:52;100615.31;;;22.17;57.35
55187;BME280;55457;52.002;5.464;2023-09-19T13:38:18;100615.88;;;22.24;57.72
55187;BME280;55457;52.002;5.464;2023-09-19T13:40:47;100624.88;;;22.24;56.93
55187;BME280;55457;52.002;5.464;2023-09-19T13:43:13;100614.53;;;22.21;57.32
55187;BME280;55457;52.002;5.464;2023-09-19T13:45:38;100606.63;;;22.14;57.12
55187;BME280;55457;52.002;5.464;2023-09-19T13:48:07;100597.34;;;22.10;57.52
55187;BME280;55457;52.002;5.464;2023-09-19T13:50:34;100604.06;;;22.08;57.34
55187;BME280;55457;52.002;5.464;2023-09-19T13:53:00;100597.78;;;22.02;57.14
55187;BME280;55457;52.002;5.464;2023-09-19T13:55:25;100591.78;;;21.95;57.32
55187;BME280;55457;52.002;5.464;2023-09-19T13:57:51;100585.75;;;21.88;57.96